Time;durP1;ratioP1;P1;durP2;ratioP2;P2;SDS_P1;SDS_P2;PMS_P1;PMS_P2;Temp;Humidity;BMP_temperature;BMP_pressure;BME280_temperature;BME280_humidity;BME280_pressure;Samples;Min_cycle;Max_cycle;Signal;HPM_P1;HPM_P2
2023/05/24 00:01:51;;;;;;;9.52;7.57;;;24.00;77.90;;;;;;6369647;22;20056;-83
2023/05/24 00:04:18;;;;;;;8.70;7.45;;;24.00;77.90;;;;;;6371061;22;20021;-84
2023/05/24 00:06:44;;;;;;;6.97;5.70;;;23.90;77.60;;;;;;6370292;22;20055;-82
2023/05/24 00:09:11;;;;;;;9.02;6.30;;;23.90;77.40;;;;;;6370956;22;20080;-82
2023/05/24 00:11:37;;;;;;;14.05;7.22;;;23.80;77.30;;;;;;6370178;22;20009;-82
2023/05/24 00:14:02;;;;;;;12.90;8.95;;;23.70;77.40;;;;;;6370584;22;20324;-82
2023/05/24 00:16:28;;;;;;;10.50;8.75;;;23.60;77.60;;;;;;6369939;22;20006;-82
2023/05/24 00:18:54;;;;;;;8.75;6.47;;;23.40;77.60;;;;;;6370768;22;20062;-82
2023/05/24 00:21:19;;;;;;;11.05;7.22;;;23.30;77.70;;;;;;6370178;22;20351;-82
2023/05/24 00:23:46;;;;;;;8.93;6.95;;;23.30;77.80;;;;;;6370516;22;20346;-82
2023/05/24 00:26:12;;;;;;;9.40;7.43;;;23.20;77.90;;;;;;6369673;22;20013;-82
2023/05/24 00:28:37;;;;;;;8.13;6.70;;;23.20;78.00;;;;;;6370402;22;20014;-82
2023/05/24 00:31:03;;;;;;;8.85;7.25;;;23.20;78.00;;;;;;6370256;22;20420;-82
2023/05/24 00:33:29;;;;;;;11.32;7.93;;;23.20;78.00;;;;;;6370251;22;20008;-82
2023/05/24 00:35:57;;;;;;;8.10;6.93;;;23.30;77.90;;;;;;6369570;22;20037;-82
2023/05/24 00:38:24;;;;;;;9.65;6.82;;;23.30;77.90;;;;;;6369924;22;19998;-82
2023/05/24 00:40:50;;;;;;;11.90;7.28;;;23.30;77.70;;;;;;6369704;22;20051;-82
2023/05/24 00:43:16;;;;;;;8.27;7.47;;;23.40;77.70;;;;;;6369978;22;19998;-84
2023/05/24 00:45:42;;;;;;;11.13;6.50;;;23.40;77.70;;;;;;6369295;22;20155;-84
2023/05/24 00:48:09;;;;;;;7.53;6.65;;;23.40;77.60;;;;;;6370641;22;20094;-84
2023/05/24 00:50:35;;;;;;;10.05;7.45;;;23.30;77.50;;;;;;6370098;22;20432;-83
2023/05/24 00:53:02;;;;;;;10.55;7.85;;;23.40;77.60;;;;;;6370392;22;20069;-85
2023/05/24 00:55:29;;;;;;;8.70;6.80;;;23.40;77.60;;;;;;6369456;22;20055;-84
2023/05/24 00:57:56;;;;;;;11.52;7.53;;;23.40;77.70;;;;;;6369630;22;19994;-81
2023/05/24 01:00:22;;;;;;;9.25;6.90;;;23.40;77.90;;;;;;6369652;22;20067;-83
2023/05/24 01:02:49;;;;;;;8.70;7.55;;;23.40;78.00;;;;;;6370094;22;20005;-83
2023/05/24 01:05:16;;;;;;;8.55;7.22;;;23.40;77.90;;;;;;6369959;22;20002;-83
2023/05/24 01:07:52;;;;;;;11.85;7.85;;;23.40;77.80;;;;;;6370245;22;20002;-83
2023/05/24 01:10:33;;;;;;;8.52;7.20;;;23.40;77.90;;;;;;6369437;22;20408;-84
2023/05/24 01:12:59;;;;;;;11.32;7.32;;;23.40;78.20;;;;;;6369955;22;20024;-84
2023/05/24 01:15:48;;;;;;;11.05;8.07;;;23.40;78.30;;;;;;6369272;22;20114;-84
2023/05/24 01:18:29;;;;;;;8.27;7.18;;;23.40;78.40;;;;;;6369936;22;20006;-84
2023/05/24 01:21:18;;;;;;;8.82;7.30;;;23.40;78.50;;;;;;6370171;22;20002;-84
2023/05/24 01:23:56;;;;;;;9.95;7.63;;;23.30;78.40;;;;;;6369595;22;19994;-86
2023/05/24 01:26:31;;;;;;;11.20;7.95;;;23.30;78.40;;;;;;6369566;22;20026;-85
2023/05/24 01:28:58;;;;;;;10.02;7.75;;;23.30;78.40;;;;;;6369497;22;20022;-84
2023/05/24 01:31:24;;;;;;;15.15;10.18;;;23.30;78.40;;;;;;6369990;22;20003;-84
2023/05/24 01:33:50;;;;;;;10.40;7.72;;;23.30;77.90;;;;;;6369556;22;20070;-84
2023/05/24 01:36:16;;;;;;;10.02;8.00;;;23.20;77.60;;;;;;6369053;22;20002;-84
2023/05/24 01:38:42;;;;;;;12.27;8.13;;;23.20;77.60;;;;;;6369494;22;20002;-83
2023/05/24 01:41:16;;;;;;;10.85;8.27;;;23.20;77.60;;;;;;6369900;22;20293;-82
2023/05/24 01:43:59;;;;;;;10.30;8.20;;;23.10;77.60;;;;;;6341113;22;20322;-83
2023/05/24 01:46:38;;;;;;;10.13;7.97;;;23.10;77.80;;;;;;6369637;22;19998;-83
2023/05/24 01:49:16;;;;;;;10.77;8.55;;;23.10;77.80;;;;;;6368613;22;20013;-83
2023/05/24 01:51:50;;;;;;;10.63;8.05;;;23.10;77.60;;;;;;6370286;22;20002;-83
2023/05/24 01:54:19;;;;;;;11.48;7.85;;;23.00;78.10;;;;;;6371687;22;20003;-83
2023/05/24 01:56:47;;;;;;;11.80;8.20;;;23.00;77.60;;;;;;6371042;22;20008;-83
2023/05/24 01:59:14;;;;;;;12.32;8.60;;;23.00;77.80;;;;;;6372240;22;20573;-83
2023/05/24 02:01:40;;;;;;;9.65;7.63;;;23.00;77.80;;;;;;6371231;22;20488;-83
2023/05/24 02:04:06;;;;;;;10.45;7.65;;;23.00;77.80;;;;;;6371781;22;20074;-83
2023/05/24 02:06:32;;;;;;;12.77;8.48;;;23.00;77.90;;;;;;6370571;22;20026;-83
2023/05/24 02:08:57;;;;;;;9.63;8.50;;;22.90;77.90;;;;;;6370916;22;20026;-82
2023/05/24 02:11:23;;;;;;;8.23;6.97;;;22.90;77.90;;;;;;6371506;22;20029;-83
2023/05/24 02:13:49;;;;;;;10.07;8.75;;;22.90;77.90;;;;;;6371613;22;20029;-84
2023/05/24 02:16:14;;;;;;;10.00;7.95;;;22.80;77.90;;;;;;6342813;22;20002;-85
2023/05/24 02:18:43;;;;;;;10.23;7.93;;;22.80;77.90;;;;;;6371860;22;20401;-84
2023/05/24 02:21:08;;;;;;;10.85;7.55;;;22.70;77.90;;;;;;6370878;22;19998;-83
2023/05/24 02:23:35;;;;;;;9.07;7.53;;;22.70;78.10;;;;;;6343286;22;20011;-83
2023/05/24 02:26:00;;;;;;;13.25;7.80;;;22.70;78.10;;;;;;6369988;22;20022;-83
2023/05/24 02:28:28;;;;;;;11.45;7.30;;;22.70;77.90;;;;;;6371870;22;20007;-83
2023/05/24 02:30:54;;;;;;;10.85;7.55;;;22.60;78.00;;;;;;6343472;22;20048;-83
2023/05/24 02:33:20;;;;;;;10.75;7.70;;;22.60;77.90;;;;;;6371759;22;20002;-83
2023/05/24 02:35:45;;;;;;;10.55;8.00;;;22.60;77.90;;;;;;6342469;22;20010;-83
2023/05/24 02:38:11;;;;;;;8.15;6.55;;;22.50;77.80;;;;;;6371688;22;20070;-85
2023/05/24 02:40:37;;;;;;;11.35;6.65;;;22.50;77.60;;;;;;6372280;22;20408;-85
2023/05/24 02:43:02;;;;;;;8.95;7.15;;;22.50;77.80;;;;;;6371624;22;19994;-85
2023/05/24 02:45:28;;;;;;;7.22;6.00;;;22.50;77.90;;;;;;6371329;22;20002;-85
2023/05/24 02:47:54;;;;;;;10.02;7.05;;;22.50;77.90;;;;;;6371083;22;19999;-85
2023/05/24 02:50:19;;;;;;;8.55;5.75;;;22.50;78.00;;;;;;6371415;22;19998;-85
2023/05/24 02:52:45;;;;;;;7.50;5.80;;;22.50;78.10;;;;;;6371905;22;20006;-85
2023/05/24 02:55:10;;;;;;;9.35;6.07;;;22.50;78.10;;;;;;6371727;22;20013;-84
2023/05/24 02:57:37;;;;;;;4.72;4.22;;;22.40;78.20;;;;;;6371357;22;19998;-85
2023/05/24 03:00:07;;;;;;;7.13;4.63;;;22.40;78.30;;;;;;6371365;22;20021;-86
2023/05/24 03:02:32;;;;;;;6.25;4.45;;;22.30;78.30;;;;;;6371112;22;19998;-86
2023/05/24 03:04:58;;;;;;;6.03;4.30;;;22.30;78.30;;;;;;6371517;22;20305;-85
2023/05/24 03:07:24;;;;;;;5.82;4.10;;;22.30;78.30;;;;;;6369977;22;19995;-85
2023/05/24 03:09:49;;;;;;;6.45;4.28;;;22.30;78.30;;;;;;6370958;22;20002;-82
2023/05/24 03:12:15;;;;;;;6.30;4.25;;;22.30;78.20;;;;;;6371051;22;20002;-83
2023/05/24 03:14:41;;;;;;;5.20;3.53;;;22.30;78.00;;;;;;6370864;22;20001;-82
2023/05/24 03:17:06;;;;;;;6.88;3.17;;;22.30;77.90;;;;;;6341899;22;20002;-82
2023/05/24 03:19:32;;;;;;;5.35;3.28;;;22.30;77.70;;;;;;6370873;22;19998;-82
2023/05/24 03:21:58;;;;;;;5.03;2.60;;;22.20;77.40;;;;;;6370550;22;20022;-83
2023/05/24 03:24:24;;;;;;;6.60;3.25;;;22.20;77.20;;;;;;6370630;22;20047;-83
2023/05/24 03:26:50;;;;;;;4.18;2.85;;;22.20;76.90;;;;;;6369863;22;20003;-80
2023/05/24 03:29:16;;;;;;;2.65;2.45;;;22.20;76.90;;;;;;6342989;22;20022;-82
2023/05/24 03:31:41;;;;;;;4.57;2.88;;;22.20;76.60;;;;;;6370697;22;19999;-82
2023/05/24 03:34:07;;;;;;;3.20;2.63;;;22.20;76.50;;;;;;6371137;22;20054;-82
2023/05/24 03:36:33;;;;;;;5.88;2.65;;;22.20;76.40;;;;;;6369345;22;20055;-82
2023/05/24 03:38:58;;;;;;;4.88;3.03;;;22.20;76.30;;;;;;6370730;22;20050;-82
2023/05/24 03:41:25;;;;;;;5.50;2.65;;;22.20;76.30;;;;;;6370130;22;20001;-83
2023/05/24 03:43:51;;;;;;;4.28;2.95;;;22.20;76.10;;;;;;6370709;22;19994;-83
2023/05/24 03:46:17;;;;;;;4.80;3.17;;;22.20;76.00;;;;;;6370506;22;20025;-83
2023/05/24 03:48:43;;;;;;;3.70;2.92;;;22.20;76.10;;;;;;6343321;22;20433;-83
2023/05/24 03:51:08;;;;;;;4.57;2.88;;;22.20;75.90;;;;;;6369778;22;20002;-84
2023/05/24 03:53:34;;;;;;;3.67;2.55;;;22.20;75.90;;;;;;6370963;22;20370;-83
2023/05/24 03:56:00;;;;;;;4.85;2.83;;;22.20;75.80;;;;;;6369991;22;20005;-83
2023/05/24 03:58:25;;;;;;;3.50;3.20;;;22.10;75.70;;;;;;6370896;22;20131;-82
2023/05/24 04:00:51;;;;;;;3.78;2.85;;;22.10;75.80;;;;;;6370615;22;20115;-84
2023/05/24 04:03:18;;;;;;;3.85;2.92;;;22.10;75.80;;;;;;6371036;22;20073;-85
2023/05/24 04:05:44;;;;;;;3.33;2.72;;;22.10;75.70;;;;;;6370193;22;20436;-85
2023/05/24 04:08:11;;;;;;;9.38;3.20;;;22.20;75.80;;;;;;6370442;22;20002;-84
2023/05/24 04:10:37;;;;;;;5.75;3.38;;;22.20;75.80;;;;;;6369746;22;20030;-84
2023/05/24 04:13:02;;;;;;;3.72;3.13;;;22.10;75.80;;;;;;6369592;22;20324;-84
2023/05/24 04:15:28;;;;;;;6.78;3.40;;;22.10;75.80;;;;;;6370841;22;20007;-84
2023/05/24 04:17:54;;;;;;;4.28;3.13;;;22.10;75.80;;;;;;6371757;22;19999;-85
2023/05/24 04:20:24;;;;;;;7.63;3.58;;;22.10;75.90;;;;;;6373759;22;20005;-84
2023/05/24 04:22:50;;;;;;;4.45;3.90;;;22.10;75.80;;;;;;6371312;22;20421;-84
2023/05/24 04:25:16;;;;;;;5.38;3.28;;;22.10;75.80;;;;;;6380968;22;20003;-84
2023/05/24 04:27:43;;;;;;;4.38;3.03;;;22.10;76.00;;;;;;6387058;22;19982;-84
2023/05/24 04:30:09;;;;;;;4.75;3.38;;;22.10;76.10;;;;;;6362641;22;20094;-83
2023/05/24 04:32:35;;;;;;;7.70;3.42;;;22.10;76.00;;;;;;6381711;22;19999;-84
2023/05/24 04:35:01;;;;;;;4.15;3.25;;;22.10;76.10;;;;;;6381988;22;19990;-84
2023/05/24 04:37:28;;;;;;;6.47;3.38;;;22.00;76.10;;;;;;6354651;22;20055;-83
2023/05/24 04:39:54;;;;;;;6.00;4.10;;;22.00;76.30;;;;;;6380963;22;19998;-83
2023/05/24 04:42:20;;;;;;;4.78;3.55;;;22.10;76.40;;;;;;6380558;22;20001;-83
2023/05/24 04:44:46;;;;;;;8.38;3.88;;;22.10;76.40;;;;;;6371159;22;20345;-81
2023/05/24 04:47:13;;;;;;;5.70;3.88;;;22.10;76.30;;;;;;6369787;22;19994;-81
2023/05/24 04:49:38;;;;;;;6.85;4.00;;;22.10;76.30;;;;;;6370393;22;19998;-81
2023/05/24 04:52:05;;;;;;;4.97;3.83;;;22.10;76.30;;;;;;6370666;22;20004;-82
2023/05/24 04:54:31;;;;;;;5.28;3.38;;;22.10;76.40;;;;;;6369799;22;19994;-82
2023/05/24 04:56:57;;;;;;;6.32;3.95;;;22.10;76.40;;;;;;6370098;22;20026;-82
2023/05/24 04:59:23;;;;;;;5.32;3.80;;;22.10;76.40;;;;;;6369620;22;19994;-83
2023/05/24 05:01:48;;;;;;;4.78;3.53;;;22.10;76.70;;;;;;6369354;22;20051;-83
2023/05/24 05:04:14;;;;;;;4.93;3.83;;;22.10;76.70;;;;;;6369360;22;20427;-81
2023/05/24 05:06:42;;;;;;;6.65;3.83;;;22.10;76.60;;;;;;6368799;22;19999;-83
2023/05/24 05:09:09;;;;;;;6.43;4.28;;;22.10;76.70;;;;;;6341748;22;20428;-82
2023/05/24 05:11:35;;;;;;;4.80;3.95;;;22.10;76.70;;;;;;6369317;22;20055;-82
2023/05/24 05:14:01;;;;;;;7.90;3.92;;;22.20;76.80;;;;;;6369910;22;19998;-82
2023/05/24 05:16:27;;;;;;;4.63;3.70;;;22.20;76.90;;;;;;6368749;22;20006;-83
2023/05/24 05:18:53;;;;;;;4.72;3.38;;;22.20;76.90;;;;;;6341311;22;20009;-84
2023/05/24 05:21:18;;;;;;;5.47;3.28;;;22.20;76.80;;;;;;6369047;22;20002;-84
2023/05/24 05:23:44;;;;;;;6.40;3.80;;;22.20;77.00;;;;;;6368856;22;20069;-84
2023/05/24 05:26:10;;;;;;;5.70;3.40;;;22.20;77.30;;;;;;6369307;22;20081;-83
2023/05/24 05:28:36;;;;;;;6.15;3.80;;;22.20;77.50;;;;;;6342237;22;20018;-83
2023/05/24 05:31:02;;;;;;;6.97;4.18;;;22.20;77.30;;;;;;6370784;22;20002;-82
2023/05/24 05:33:29;;;;;;;6.00;4.13;;;22.10;77.60;;;;;;6369705;22;20324;-81
2023/05/24 05:35:55;;;;;;;8.13;3.83;;;22.10;77.80;;;;;;6368000;22;20124;-83
2023/05/24 05:38:21;;;;;;;5.35;3.60;;;22.10;77.80;;;;;;6367027;22;20440;-84
2023/05/24 05:40:46;;;;;;;5.50;3.47;;;22.00;77.80;;;;;;6337081;22;20003;-85
2023/05/24 05:43:12;;;;;;;6.65;4.25;;;22.10;78.00;;;;;;6368556;22;20043;-85
2023/05/24 05:45:37;;;;;;;4.20;3.58;;;22.10;78.00;;;;;;6369687;22;20442;-85
2023/05/24 05:48:03;;;;;;;9.05;3.72;;;22.20;78.30;;;;;;6369747;22;20329;-84
2023/05/24 05:50:29;;;;;;;5.95;4.18;;;22.20;78.30;;;;;;6369894;22;20006;-87
2023/05/24 05:52:55;;;;;;;6.20;3.42;;;22.20;78.50;;;;;;6342319;22;20003;-87
2023/05/24 05:55:21;;;;;;;5.63;3.70;;;22.20;78.50;;;;;;6370595;22;20003;-86
2023/05/24 05:57:48;;;;;;;7.68;3.60;;;22.30;78.40;;;;;;6341973;22;20009;-88
2023/05/24 06:00:14;;;;;;;5.00;3.40;;;22.30;78.40;;;;;;6369040;22;19998;-86
2023/05/24 06:02:39;;;;;;;9.57;5.38;;;22.40;78.30;;;;;;6369146;22;20002;-85
2023/05/24 06:05:05;;;;;;;6.45;3.88;;;22.40;78.40;;;;;;6345247;22;19998;-85
2023/05/24 06:07:31;;;;;;;3.50;3.20;;;22.40;78.30;;;;;;6341066;22;20003;-87
2023/05/24 06:09:57;;;;;;;5.28;3.53;;;22.40;78.50;;;;;;6369329;22;20405;-86
2023/05/24 06:12:22;;;;;;;4.28;3.55;;;22.40;78.70;;;;;;6369451;22;20324;-84
2023/05/24 06:14:49;;;;;;;6.78;3.58;;;22.40;78.70;;;;;;6369633;22;19999;-84
2023/05/24 06:17:15;;;;;;;4.55;3.13;;;22.50;79.10;;;;;;6342942;22;20003;-84
2023/05/24 06:19:42;;;;;;;8.02;4.10;;;22.50;79.20;;;;;;6369852;22;20073;-85
2023/05/24 06:22:08;;;;;;;6.20;3.15;;;22.50;79.20;;;;;;6369569;22;20021;-83
2023/05/24 06:24:34;;;;;;;5.80;3.20;;;22.50;79.60;;;;;;6369189;22;20388;-84
2023/05/24 06:27:00;;;;;;;5.18;3.53;;;22.60;79.80;;;;;;6368109;22;20002;-85
2023/05/24 06:29:26;;;;;;;5.22;3.53;;;22.50;79.80;;;;;;6368152;22;20014;-84
2023/05/24 06:31:51;;;;;;;4.15;3.75;;;22.50;79.90;;;;;;6370103;22;20051;-85
2023/05/24 06:34:20;;;;;;;6.65;4.00;;;22.60;80.40;;;;;;6343117;22;20328;-84
2023/05/24 06:36:47;;;;;;;4.03;3.05;;;22.60;80.70;;;;;;6372634;22;20007;-83
2023/05/24 06:39:13;;;;;;;4.03;3.00;;;22.60;80.30;;;;;;6374545;22;20366;-84
2023/05/24 06:41:41;;;;;;;5.45;3.47;;;22.60;80.70;;;;;;6372591;22;20002;-83
2023/05/24 06:44:06;;;;;;;5.40;3.70;;;22.70;81.00;;;;;;6371042;22;20073;-84
2023/05/24 06:46:32;;;;;;;3.92;3.17;;;22.70;80.70;;;;;;6370774;22;20032;-85
2023/05/24 06:48:58;;;;;;;5.82;3.80;;;22.80;81.20;;;;;;6369889;22;20006;-84
2023/05/24 06:51:24;;;;;;;6.32;4.10;;;22.90;80.80;;;;;;6370707;22;20020;-85
2023/05/24 06:53:49;;;;;;;6.70;4.22;;;22.90;80.80;;;;;;6370375;22;19998;-85
2023/05/24 06:56:15;;;;;;;5.68;3.67;;;23.00;81.10;;;;;;6369204;22;20013;-85
2023/05/24 06:58:41;;;;;;;5.25;4.20;;;23.10;81.00;;;;;;6370771;22;20003;-86
2023/05/24 07:01:07;;;;;;;16.45;7.53;;;23.10;80.90;;;;;;6341865;22;20003;-85
2023/05/24 07:03:33;;;;;;;8.63;5.47;;;23.10;80.90;;;;;;6366537;22;19998;-84
2023/05/24 07:06:02;;;;;;;7.95;5.07;;;23.20;80.90;;;;;;6339740;22;20002;-86
2023/05/24 07:08:28;;;;;;;7.72;5.30;;;23.20;80.80;;;;;;6342788;22;20007;-82
2023/05/24 07:10:54;;;;;;;8.50;6.20;;;23.20;80.70;;;;;;6371082;22;20006;-82
2023/05/24 07:13:20;;;;;;;7.68;5.43;;;23.30;81.20;;;;;;6370639;22;19998;-85
2023/05/24 07:15:46;;;;;;;9.77;5.82;;;23.40;81.20;;;;;;6370901;22;20014;-85
2023/05/24 07:18:12;;;;;;;13.50;7.90;;;23.40;81.30;;;;;;6370679;22;20009;-86
2023/05/24 07:20:38;;;;;;;8.65;6.40;;;23.50;80.70;;;;;;6370306;22;20033;-86
2023/05/24 07:23:05;;;;;;;7.57;5.68;;;23.50;81.60;;;;;;6370100;22;20328;-82
2023/05/24 07:25:32;;;;;;;7.50;6.13;;;23.60;80.40;;;;;;6371270;22;20005;-82
2023/05/24 07:27:58;;;;;;;9.05;7.25;;;23.70;79.80;;;;;;6371497;22;20078;-81
2023/05/24 07:30:23;;;;;;;7.15;5.75;;;23.80;78.90;;;;;;6370405;22;20049;-81
2023/05/24 07:32:49;;;;;;;7.03;5.68;;;23.80;79.00;;;;;;6370599;22;19998;-81
2023/05/24 07:35:16;;;;;;;8.27;5.75;;;23.90;79.20;;;;;;6341583;22;20010;-85
2023/05/24 07:37:42;;;;;;;7.93;6.15;;;24.00;79.10;;;;;;6370569;22;20306;-85
2023/05/24 07:40:11;;;;;;;8.80;5.65;;;24.00;79.10;;;;;;6342464;22;20001;-85
2023/05/24 07:42:37;;;;;;;7.90;5.50;;;24.00;79.00;;;;;;6370799;22;20085;-85
2023/05/24 07:45:04;;;;;;;11.20;7.53;;;24.10;79.20;;;;;;6370338;22;20436;-84
2023/05/24 07:47:30;;;;;;;6.97;5.60;;;24.10;79.30;;;;;;6370039;22;20085;-85
2023/05/24 07:49:55;;;;;;;13.05;7.57;;;24.20;79.30;;;;;;6370288;22;20041;-85
2023/05/24 07:52:22;;;;;;;6.20;5.50;;;24.10;78.80;;;;;;6370383;22;19994;-84
2023/05/24 07:54:48;;;;;;;12.32;7.63;;;24.20;79.10;;;;;;6342696;22;20002;-85
2023/05/24 07:57:13;;;;;;;8.75;6.22;;;24.30;79.30;;;;;;6370754;22;20009;-84
2023/05/24 07:59:39;;;;;;;8.93;6.72;;;24.30;79.40;;;;;;6343079;22;20002;-86
2023/05/24 08:02:05;;;;;;;6.43;5.20;;;24.40;78.40;;;;;;6370070;22;20010;-85
2023/05/24 08:04:34;;;;;;;4.55;4.13;;;24.40;78.00;;;;;;6342491;22;20321;-85
2023/05/24 08:07:01;;;;;;;4.22;3.80;;;24.40;78.00;;;;;;6369589;22;20030;-86
2023/05/24 08:09:28;;;;;;;9.60;5.43;;;24.50;77.30;;;;;;6369711;22;20003;-85
2023/05/24 08:11:55;;;;;;;8.07;4.38;;;24.60;77.00;;;;;;6369380;22;20022;-85
2023/05/24 08:14:22;;;;;;;6.18;4.30;;;24.60;76.00;;;;;;6369493;22;20002;-85
2023/05/24 08:16:48;;;;;;;5.65;4.30;;;24.70;75.80;;;;;;6370814;22;20022;-85
2023/05/24 08:19:13;;;;;;;8.00;5.65;;;24.70;75.90;;;;;;6370070;22;19995;-85
2023/05/24 08:21:40;;;;;;;5.32;4.50;;;24.70;75.70;;;;;;6370063;22;19998;-86
2023/05/24 08:24:09;;;;;;;11.25;6.75;;;24.80;77.00;;;;;;6370742;22;19998;-85
2023/05/24 08:26:35;;;;;;;5.20;3.88;;;24.80;75.80;;;;;;6369009;22;19998;-85
2023/05/24 08:29:02;;;;;;;9.55;4.57;;;24.90;76.40;;;;;;6368325;22;20039;-86
2023/05/24 08:31:28;;;;;;;6.95;4.10;;;25.00;76.20;;;;;;6369269;22;20002;-84
2023/05/24 08:33:56;;;;;;;7.57;4.55;;;25.10;76.00;;;;;;6370334;22;20009;-85
2023/05/24 08:36:21;;;;;;;7.40;5.45;;;25.10;75.30;;;;;;6369980;22;20028;-85
2023/05/24 08:38:50;;;;;;;6.20;4.35;;;25.20;75.30;;;;;;6369729;22;20002;-86
2023/05/24 08:41:16;;;;;;;4.30;3.75;;;25.20;75.00;;;;;;6367533;22;19995;-85
2023/05/24 08:43:43;;;;;;;8.23;4.88;;;25.30;74.80;;;;;;6370012;22;20114;-85
2023/05/24 08:46:11;;;;;;;6.43;4.78;;;25.30;74.60;;;;;;6370191;22;20006;-85
2023/05/24 08:48:47;;;;;;;5.85;4.60;;;25.30;73.10;;;;;;6369720;22;20328;-85
2023/05/24 08:51:16;;;;;;;5.25;3.63;;;25.30;72.80;;;;;;6369348;22;20045;-86
2023/05/24 08:53:47;;;;;;;5.80;3.37;;;25.30;74.00;;;;;;6369859;22;19998;-86
2023/05/24 08:56:18;;;;;;;4.93;3.65;;;25.30;73.50;;;;;;6370048;22;20025;-84
2023/05/24 08:58:45;;;;;;;5.10;3.65;;;25.40;73.60;;;;;;6369496;22;20332;-87
2023/05/24 09:01:13;;;;;;;6.75;4.45;;;25.50;73.30;;;;;;6342530;22;20005;-86
2023/05/24 09:03:41;;;;;;;6.25;4.22;;;25.50;72.40;;;;;;6370009;22;20454;-87
2023/05/24 09:06:09;;;;;;;5.90;3.03;;;25.50;70.40;;;;;;6369814;22;20006;-87
2023/05/24 09:08:37;;;;;;;7.30;4.15;;;25.50;71.00;;;;;;6369510;22;20425;-87
2023/05/24 09:11:06;;;;;;;5.68;4.03;;;25.60;69.90;;;;;;6341642;22;20012;-81
2023/05/24 09:13:33;;;;;;;5.47;4.00;;;25.60;70.50;;;;;;6369100;22;20343;-82
2023/05/24 09:16:00;;;;;;;5.43;3.88;;;25.60;69.20;;;;;;6369654;22;20116;-82
2023/05/24 09:18:26;;;;;;;3.03;2.50;;;25.60;69.30;;;;;;6369624;22;20022;-82
2023/05/24 09:20:52;;;;;;;5.43;3.38;;;25.70;70.30;;;;;;6369420;22;19998;-83
2023/05/24 09:23:17;;;;;;;4.38;3.38;;;25.80;69.40;;;;;;6369843;22;20424;-82
2023/05/24 09:25:45;;;;;;;6.25;2.90;;;25.90;69.70;;;;;;6368723;22;20006;-82
2023/05/24 09:28:14;;;;;;;6.65;3.28;;;26.00;70.30;;;;;;6368976;22;20030;-82
2023/05/24 09:30:44;;;;;;;8.27;3.60;;;26.10;70.40;;;;;;6369553;22;20002;-82
2023/05/24 09:33:12;;;;;;;4.18;2.70;;;26.20;71.00;;;;;;6368544;22;20085;-82
2023/05/24 09:35:42;;;;;;;5.13;3.50;;;26.30;69.00;;;;;;6368922;22;20438;-83
2023/05/24 09:38:18;;;;;;;3.75;3.28;;;26.30;69.80;;;;;;6341350;22;20009;-82
2023/05/24 09:40:44;;;;;;;8.00;4.72;;;26.40;69.70;;;;;;6369575;22;20022;-82
2023/05/24 09:43:10;;;;;;;8.48;4.40;;;26.40;70.00;;;;;;6369987;22;20006;-83
2023/05/24 09:45:47;;;;;;;7.88;5.82;;;26.40;70.80;;;;;;6369495;22;20010;-83
2023/05/24 09:48:15;;;;;;;5.45;4.18;;;26.30;69.30;;;;;;6370015;22;20006;-83
2023/05/24 09:50:41;;;;;;;5.75;4.15;;;26.30;70.60;;;;;;6369025;22;20483;-83
2023/05/24 09:53:07;;;;;;;6.57;4.32;;;26.40;70.70;;;;;;6368705;22;20421;-85
2023/05/24 09:55:37;;;;;;;5.45;3.95;;;26.40;70.60;;;;;;6369369;22;20009;-87
2023/05/24 09:58:07;;;;;;;5.65;4.05;;;26.50;72.00;;;;;;6369695;22;20325;-86
2023/05/24 10:00:40;;;;;;;;;;;26.50;71.60;;;;;;6342114;22;20342;-86
2023/05/24 10:03:10;;;;;;;5.35;3.70;;;26.70;70.90;;;;;;6368874;22;19902;-86
2023/05/24 10:05:37;;;;;;;5.70;3.78;;;26.80;71.50;;;;;;6368504;22;20051;-85
2023/05/24 10:08:04;;;;;;;11.23;5.93;;;26.90;70.00;;;;;;6368548;22;20032;-85
2023/05/24 10:10:32;;;;;;;8.77;3.83;;;27.00;70.00;;;;;;6368028;22;20391;-82
2023/05/24 10:12:59;;;;;;;4.68;3.40;;;27.00;70.50;;;;;;6342007;22;20446;-83
2023/05/24 10:15:26;;;;;;;4.70;3.40;;;27.10;70.00;;;;;;6341935;22;20003;-82
2023/05/24 10:17:53;;;;;;;3.53;2.92;;;27.20;69.50;;;;;;6370341;22;19994;-81
2023/05/24 10:20:18;;;;;;;7.72;3.80;;;27.30;69.00;;;;;;6369107;22;20077;-84
2023/05/24 10:22:46;;;;;;;6.90;4.35;;;27.50;69.00;;;;;;6369869;22;20018;-83
2023/05/24 10:25:26;;;;;;;3.80;2.88;;;27.60;65.90;;;;;;6342809;22;20389;-83
2023/05/24 10:27:59;;;;;;;3.90;2.90;;;27.60;65.70;;;;;;6370365;22;20002;-81
2023/05/24 10:30:34;;;;;;;5.25;2.75;;;27.60;66.30;;;;;;6370163;22;20408;-82
2023/05/24 10:33:01;;;;;;;4.82;3.22;;;27.60;66.10;;;;;;6371492;22;20009;-82
2023/05/24 10:35:28;;;;;;;12.98;4.40;;;27.70;66.20;;;;;;6370261;22;20432;-86
2023/05/24 10:37:54;;;;;;;5.47;3.72;;;27.80;65.20;;;;;;6370481;22;20521;-86
2023/05/24 10:40:25;;;;;;;6.78;3.50;;;27.90;64.70;;;;;;6370969;22;19998;-87
2023/05/24 10:42:54;;;;;;;4.68;3.38;;;28.10;65.50;;;;;;6342229;22;19998;-87
2023/05/24 10:45:23;;;;;;;5.30;3.67;;;28.20;64.50;;;;;;6369233;22;20009;-86
2023/05/24 10:47:50;;;;;;;3.92;2.97;;;28.20;64.30;;;;;;6370038;22;20033;-86
2023/05/24 10:50:17;;;;;;;5.22;3.55;;;28.40;64.00;;;;;;6369596;22;20021;-86
2023/05/24 10:52:44;;;;;;;3.72;2.75;;;28.60;62.90;;;;;;6368697;22;20009;-87
2023/05/24 10:55:10;;;;;;;3.80;2.63;;;28.70;62.60;;;;;;6369746;22;20033;-87
2023/05/24 10:57:38;;;;;;;4.45;2.90;;;28.80;63.00;;;;;;6370094;22;20026;-86
2023/05/24 11:00:23;;;;;;;2.85;2.42;;;28.90;62.40;;;;;;6367803;22;20726;-86
2023/05/24 11:02:49;;;;;;;6.05;3.60;;;29.00;61.30;;;;;;6371395;22;20018;-87
2023/05/24 11:05:18;;;;;;;3.55;2.90;;;29.00;60.30;;;;;;6370507;22;19999;-86
2023/05/24 11:07:44;;;;;;;2.83;2.23;;;29.10;61.30;;;;;;6342833;22;20093;-86
2023/05/24 11:10:28;;;;;;;3.38;2.20;;;29.20;61.90;;;;;;6342865;22;19998;-87
2023/05/24 11:12:59;;;;;;;4.13;2.78;;;29.40;60.80;;;;;;6370896;22;20006;-86
2023/05/24 11:15:25;;;;;;;6.15;3.85;;;29.50;60.20;;;;;;6369812;22;20365;-86
2023/05/24 11:18:07;;;;;;;4.60;3.50;;;29.70;61.10;;;;;;6369046;22;20075;-85
2023/05/24 11:20:34;;;;;;;6.95;3.00;;;29.90;58.00;;;;;;6369244;22;20009;-86
2023/05/24 11:23:05;;;;;;;5.75;3.83;;;30.10;59.80;;;;;;6341275;22;19998;-86
2023/05/24 11:25:34;;;;;;;4.00;2.95;;;30.30;58.90;;;;;;6369173;22;20006;-86
2023/05/24 11:28:11;;;;;;;3.95;2.78;;;30.50;59.10;;;;;;6340290;22;20010;-85
2023/05/24 11:30:42;;;;;;;5.65;3.50;;;30.80;57.20;;;;;;6370171;22;20011;-80
2023/05/24 11:33:22;;;;;;;3.58;2.88;;;30.90;57.10;;;;;;6369011;22;20349;-81
2023/05/24 11:35:53;;;;;;;4.32;2.70;;;31.10;56.80;;;;;;6369616;22;20012;-81
2023/05/24 11:38:21;;;;;;;3.60;2.60;;;31.40;55.00;;;;;;6370731;22;20018;-81
2023/05/24 11:40:50;;;;;;;3.60;2.80;;;31.60;56.20;;;;;;6370031;22;20065;-80
2023/05/24 11:43:17;;;;;;;3.07;2.70;;;31.80;51.60;;;;;;6369150;22;20428;-82
2023/05/24 11:45:45;;;;;;;2.85;2.45;;;31.90;53.10;;;;;;6370144;22;20054;-82
2023/05/24 11:48:11;;;;;;;3.13;2.67;;;32.20;51.80;;;;;;6370324;22;19999;-82
2023/05/24 11:50:51;;;;;;;6.80;3.03;;;32.30;50.80;;;;;;6369109;22;20026;-86
2023/05/24 11:53:21;;;;;;;3.35;2.53;;;32.50;50.90;;;;;;6341062;22;20032;-85
2023/05/24 11:55:47;;;;;;;5.47;3.00;;;32.70;50.60;;;;;;6342106;22;20005;-87
2023/05/24 11:58:22;;;;;;;3.63;2.45;;;33.00;49.90;;;;;;6342543;22;20033;-83
2023/05/24 12:00:48;;;;;;;3.53;2.80;;;33.10;49.50;;;;;;6342198;22;20085;-82
2023/05/24 12:03:15;;;;;;;3.75;2.78;;;33.30;48.70;;;;;;6342734;22;20055;-87
2023/05/24 12:05:42;;;;;;;3.72;2.75;;;33.50;48.90;;;;;;6372396;22;20422;-86
2023/05/24 12:08:14;;;;;;;2.60;1.92;;;33.50;48.30;;;;;;6371560;22;20025;-86
2023/05/24 12:10:43;;;;;;;3.28;2.35;;;33.70;48.00;;;;;;6369819;22;20002;-85
2023/05/24 12:13:23;;;;;;;2.78;2.35;;;33.70;47.90;;;;;;6370057;22;20077;-85
2023/05/24 12:15:58;;;;;;;4.20;2.60;;;33.80;47.60;;;;;;6369879;22;20006;-85
2023/05/24 12:18:25;;;;;;;6.47;2.30;;;34.00;46.50;;;;;;6370437;22;19990;-85
2023/05/24 12:20:52;;;;;;;4.07;2.40;;;34.00;46.90;;;;;;6369633;22;19995;-85
2023/05/24 12:23:23;;;;;;;5.75;2.28;;;34.00;46.50;;;;;;6369792;22;19998;-84
2023/05/24 12:25:49;;;;;;;3.00;2.10;;;34.10;46.70;;;;;;6370198;22;20432;-85
2023/05/24 12:28:20;;;;;;;5.40;2.70;;;34.30;46.80;;;;;;6369525;22;20124;-84
2023/05/24 12:30:48;;;;;;;5.97;2.63;;;34.40;46.00;;;;;;6370083;22;20006;-82
2023/05/24 12:33:18;;;;;;;4.25;2.67;;;34.40;45.70;;;;;;6369866;22;20022;-85
2023/05/24 12:35:44;;;;;;;4.07;2.85;;;34.50;45.60;;;;;;6370179;22;19998;-85
2023/05/24 12:38:10;;;;;;;2.90;2.30;;;34.50;44.80;;;;;;6370744;22;19994;-85
2023/05/24 12:40:36;;;;;;;3.33;2.00;;;34.50;45.60;;;;;;6370671;22;20006;-85
2023/05/24 12:43:03;;;;;;;2.40;2.20;;;34.50;45.40;;;;;;6369954;22;20006;-85
2023/05/24 12:45:29;;;;;;;2.95;2.58;;;34.60;45.60;;;;;;6369848;22;20442;-85
2023/05/24 12:47:56;;;;;;;4.57;2.40;;;34.50;44.90;;;;;;6342148;22;20006;-85